ETNT

Wittmundhafen Airport

Germany
METAR ETNT 211320Z 08008KT 9999 BKN080 25/11 Q1012 BLU
Observed Flight Rules
Jul-21 @ 13:20 UTC (35 minutes ago) Visual Flight Rules
Wind Visibility Clouds
80° at 8 knots 10,000+ meters
  • Broken at 8,000' AGL
Temperatures Readings
Current 25°C / 77°F
Dewpoint 11°C / 52°F
Humidity 42%
Altimeter 29.88" Hg
Pressure 1012 hPa
Elevation 12
METAR ETNT 211320Z 08008KT 9999 BKN080 25/11 Q1012 BLU
Observed Flight Rules
Jul-21 @ 13:20 UTC
(35 minutes ago)
VFR
Wind Visibility
80° at 8 knots 10,000+ meters
Clouds
  • Broken at 8,000' AGL
Temperature Dewpoint
25°C / 77°F 11°C / 52°F
Humidity Altimeter Pressure
42% 29.88" Hg 1012 hPa